sensor_id;sensor_type;location;lat;lon;timestamp;P1;durP1;ratioP1;P2;durP2;ratioP2
1262;SDS011;62267;50.112;8.704;2023-10-13T00:01:04;14.00;;;12.17;;
1262;SDS011;62267;50.112;8.704;2023-10-13T00:03:33;15.63;;;11.90;;
1262;SDS011;62267;50.112;8.704;2023-10-13T00:06:23;14.73;;;12.00;;
1262;SDS011;62267;50.112;8.704;2023-10-13T00:09:11;14.47;;;12.30;;
1262;SDS011;62267;50.112;8.704;2023-10-13T00:12:00;16.47;;;11.80;;
1262;SDS011;62267;50.112;8.704;2023-10-13T00:14:29;18.20;;;12.47;;
1262;SDS011;62267;50.112;8.704;2023-10-13T00:17:04;21.50;;;13.33;;
1262;SDS011;62267;50.112;8.704;2023-10-13T00:19:35;12.57;;;11.20;;
1262;SDS011;62267;50.112;8.704;2023-10-13T00:22:08;15.63;;;12.57;;
1262;SDS011;62267;50.112;8.704;2023-10-13T00:24:37;13.77;;;12.37;;
1262;SDS011;62267;50.112;8.704;2023-10-13T00:27:18;15.83;;;14.10;;
1262;SDS011;62267;50.112;8.704;2023-10-13T00:30:04;17.70;;;12.33;;
1262;SDS011;62267;50.112;8.704;2023-10-13T00:32:49;13.63;;;12.20;;
1262;SDS011;62267;50.112;8.704;2023-10-13T00:35:26;15.50;;;11.73;;
1262;SDS011;62267;50.112;8.704;2023-10-13T00:38:05;14.87;;;11.83;;
1262;SDS011;62267;50.112;8.704;2023-10-13T00:40:39;16.80;;;12.10;;
1262;SDS011;62267;50.112;8.704;2023-10-13T00:43:08;16.00;;;11.93;;
1262;SDS011;62267;50.112;8.704;2023-10-13T00:45:59;16.63;;;12.43;;
1262;SDS011;62267;50.112;8.704;2023-10-13T00:48:36;14.00;;;12.60;;
1262;SDS011;62267;50.112;8.704;2023-10-13T00:51:32;21.30;;;12.53;;
1262;SDS011;62267;50.112;8.704;2023-10-13T00:54:02;12.80;;;11.10;;
1262;SDS011;62267;50.112;8.704;2023-10-13T00:56:34;17.30;;;11.67;;
1262;SDS011;62267;50.112;8.704;2023-10-13T00:59:08;19.97;;;11.37;;
1262;SDS011;62267;50.112;8.704;2023-10-13T01:01:37;14.20;;;12.37;;
1262;SDS011;62267;50.112;8.704;2023-10-13T01:04:10;16.90;;;11.37;;
1262;SDS011;62267;50.112;8.704;2023-10-13T01:06:41;15.60;;;11.47;;
1262;SDS011;62267;50.112;8.704;2023-10-13T01:09:09;14.27;;;11.93;;
1262;SDS011;62267;50.112;8.704;2023-10-13T01:11:47;17.50;;;12.33;;
1262;SDS011;62267;50.112;8.704;2023-10-13T01:14:20;16.03;;;12.17;;
1262;SDS011;62267;50.112;8.704;2023-10-13T01:16:48;15.70;;;11.77;;
1262;SDS011;62267;50.112;8.704;2023-10-13T01:19:19;14.70;;;11.60;;
1262;SDS011;62267;50.112;8.704;2023-10-13T01:21:53;15.97;;;12.67;;
1262;SDS011;62267;50.112;8.704;2023-10-13T01:24:29;14.40;;;11.70;;
1262;SDS011;62267;50.112;8.704;2023-10-13T01:27:04;14.83;;;11.73;;
1262;SDS011;62267;50.112;8.704;2023-10-13T01:29:45;20.37;;;12.70;;
1262;SDS011;62267;50.112;8.704;2023-10-13T01:32:31;17.30;;;13.20;;
1262;SDS011;62267;50.112;8.704;2023-10-13T01:34:59;14.40;;;12.33;;
1262;SDS011;62267;50.112;8.704;2023-10-13T01:37:32;17.97;;;13.70;;
1262;SDS011;62267;50.112;8.704;2023-10-13T01:40:00;15.23;;;11.80;;
1262;SDS011;62267;50.112;8.704;2023-10-13T01:42:31;15.70;;;13.07;;
1262;SDS011;62267;50.112;8.704;2023-10-13T01:44:59;21.93;;;13.40;;
1262;SDS011;62267;50.112;8.704;2023-10-13T01:47:32;20.13;;;12.37;;
1262;SDS011;62267;50.112;8.704;2023-10-13T01:50:01;15.17;;;12.43;;
1262;SDS011;62267;50.112;8.704;2023-10-13T01:52:49;16.47;;;12.43;;
1262;SDS011;62267;50.112;8.704;2023-10-13T01:55:26;16.87;;;12.33;;
1262;SDS011;62267;50.112;8.704;2023-10-13T01:57:55;15.67;;;12.80;;
1262;SDS011;62267;50.112;8.704;2023-10-13T02:00:23;14.87;;;12.40;;
1262;SDS011;62267;50.112;8.704;2023-10-13T02:02:52;18.33;;;12.80;;
1262;SDS011;62267;50.112;8.704;2023-10-13T02:05:21;14.30;;;12.80;;
1262;SDS011;62267;50.112;8.704;2023-10-13T02:07:54;15.13;;;12.17;;
1262;SDS011;62267;50.112;8.704;2023-10-13T02:10:25;20.20;;;12.83;;
1262;SDS011;62267;50.112;8.704;2023-10-13T02:12:55;13.50;;;11.70;;
1262;SDS011;62267;50.112;8.704;2023-10-13T02:15:24;14.97;;;12.43;;
1262;SDS011;62267;50.112;8.704;2023-10-13T02:17:53;15.33;;;12.47;;
1262;SDS011;62267;50.112;8.704;2023-10-13T02:20:22;17.93;;;12.00;;
1262;SDS011;62267;50.112;8.704;2023-10-13T02:22:50;15.23;;;11.70;;
1262;SDS011;62267;50.112;8.704;2023-10-13T02:25:19;13.87;;;10.90;;
1262;SDS011;62267;50.112;8.704;2023-10-13T02:28:03;17.30;;;13.03;;
1262;SDS011;62267;50.112;8.704;2023-10-13T02:30:40;13.73;;;12.00;;
1262;SDS011;62267;50.112;8.704;2023-10-13T02:33:12;18.37;;;11.97;;
1262;SDS011;62267;50.112;8.704;2023-10-13T02:35:40;17.60;;;12.80;;
1262;SDS011;62267;50.112;8.704;2023-10-13T02:38:08;18.13;;;12.77;;
1262;SDS011;62267;50.112;8.704;2023-10-13T02:40:38;21.70;;;14.13;;
1262;SDS011;62267;50.112;8.704;2023-10-13T02:43:06;17.10;;;12.40;;
1262;SDS011;62267;50.112;8.704;2023-10-13T02:45:34;14.93;;;12.40;;
1262;SDS011;62267;50.112;8.704;2023-10-13T02:48:05;20.47;;;12.80;;
1262;SDS011;62267;50.112;8.704;2023-10-13T02:50:40;17.40;;;12.60;;
1262;SDS011;62267;50.112;8.704;2023-10-13T02:53:12;17.33;;;12.63;;
1262;SDS011;62267;50.112;8.704;2023-10-13T02:55:54;15.40;;;12.67;;
1262;SDS011;62267;50.112;8.704;2023-10-13T02:58:25;18.37;;;12.40;;
1262;SDS011;62267;50.112;8.704;2023-10-13T03:01:08;17.10;;;13.23;;
1262;SDS011;62267;50.112;8.704;2023-10-13T03:03:45;15.07;;;12.13;;
1262;SDS011;62267;50.112;8.704;2023-10-13T03:06:22;18.63;;;13.60;;
1262;SDS011;62267;50.112;8.704;2023-10-13T03:08:55;15.17;;;11.03;;
1262;SDS011;62267;50.112;8.704;2023-10-13T03:11:23;17.30;;;12.03;;
1262;SDS011;62267;50.112;8.704;2023-10-13T03:13:53;18.70;;;12.93;;
1262;SDS011;62267;50.112;8.704;2023-10-13T03:16:20;14.83;;;11.93;;
1262;SDS011;62267;50.112;8.704;2023-10-13T03:18:48;17.60;;;13.10;;
1262;SDS011;62267;50.112;8.704;2023-10-13T03:21:21;17.63;;;13.67;;
1262;SDS011;62267;50.112;8.704;2023-10-13T03:23:59;15.30;;;12.93;;
1262;SDS011;62267;50.112;8.704;2023-10-13T03:26:34;16.63;;;11.70;;
1262;SDS011;62267;50.112;8.704;2023-10-13T03:29:03;17.20;;;12.83;;
1262;SDS011;62267;50.112;8.704;2023-10-13T03:31:35;17.93;;;12.47;;
1262;SDS011;62267;50.112;8.704;2023-10-13T03:34:04;17.20;;;12.73;;
1262;SDS011;62267;50.112;8.704;2023-10-13T03:36:38;19.30;;;13.30;;
1262;SDS011;62267;50.112;8.704;2023-10-13T03:39:24;17.13;;;11.80;;
1262;SDS011;62267;50.112;8.704;2023-10-13T03:41:58;15.13;;;12.20;;
1262;SDS011;62267;50.112;8.704;2023-10-13T03:44:26;18.13;;;13.10;;
1262;SDS011;62267;50.112;8.704;2023-10-13T03:46:57;15.63;;;11.60;;
1262;SDS011;62267;50.112;8.704;2023-10-13T03:49:45;17.90;;;11.50;;
1262;SDS011;62267;50.112;8.704;2023-10-13T03:52:18;15.27;;;11.33;;
1262;SDS011;62267;50.112;8.704;2023-10-13T03:54:51;14.37;;;11.70;;
1262;SDS011;62267;50.112;8.704;2023-10-13T03:57:18;14.97;;;12.10;;
1262;SDS011;62267;50.112;8.704;2023-10-13T03:59:47;13.20;;;11.80;;
1262;SDS011;62267;50.112;8.704;2023-10-13T04:02:15;19.70;;;13.47;;
1262;SDS011;62267;50.112;8.704;2023-10-13T04:04:50;21.70;;;13.33;;
1262;SDS011;62267;50.112;8.704;2023-10-13T04:07:22;18.60;;;13.80;;
1262;SDS011;62267;50.112;8.704;2023-10-13T04:09:52;16.73;;;13.30;;
1262;SDS011;62267;50.112;8.704;2023-10-13T04:12:41;15.67;;;12.17;;
1262;SDS011;62267;50.112;8.704;2023-10-13T04:15:27;19.03;;;13.60;;
1262;SDS011;62267;50.112;8.704;2023-10-13T04:18:06;15.67;;;12.57;;
1262;SDS011;62267;50.112;8.704;2023-10-13T04:20:45;17.23;;;13.40;;
1262;SDS011;62267;50.112;8.704;2023-10-13T04:23:30;20.07;;;12.67;;
1262;SDS011;62267;50.112;8.704;2023-10-13T04:26:17;21.90;;;13.47;;
1262;SDS011;62267;50.112;8.704;2023-10-13T04:29:03;18.73;;;13.30;;
1262;SDS011;62267;50.112;8.704;2023-10-13T04:31:38;13.60;;;12.17;;
1262;SDS011;62267;50.112;8.704;2023-10-13T04:34:23;20.20;;;12.90;;
1262;SDS011;62267;50.112;8.704;2023-10-13T04:36:55;18.40;;;13.47;;
1262;SDS011;62267;50.112;8.704;2023-10-13T04:39:43;18.63;;;13.20;;
1262;SDS011;62267;50.112;8.704;2023-10-13T04:42:10;18.90;;;12.67;;
1262;SDS011;62267;50.112;8.704;2023-10-13T04:44:40;16.23;;;13.13;;
1262;SDS011;62267;50.112;8.704;2023-10-13T04:47:07;18.43;;;13.80;;
1262;SDS011;62267;50.112;8.704;2023-10-13T04:49:39;13.37;;;11.97;;
1262;SDS011;62267;50.112;8.704;2023-10-13T04:52:11;21.10;;;14.33;;
1262;SDS011;62267;50.112;8.704;2023-10-13T04:54:41;17.67;;;12.60;;
1262;SDS011;62267;50.112;8.704;2023-10-13T04:57:12;21.53;;;13.17;;
1262;SDS011;62267;50.112;8.704;2023-10-13T04:59:59;16.90;;;12.00;;
1262;SDS011;62267;50.112;8.704;2023-10-13T05:02:36;20.03;;;13.33;;
1262;SDS011;62267;50.112;8.704;2023-10-13T05:05:12;17.60;;;12.57;;
1262;SDS011;62267;50.112;8.704;2023-10-13T05:08:09;20.70;;;13.33;;
1262;SDS011;62267;50.112;8.704;2023-10-13T05:11:13;15.63;;;13.37;;
1262;SDS011;62267;50.112;8.704;2023-10-13T05:14:01;17.20;;;12.70;;
1262;SDS011;62267;50.112;8.704;2023-10-13T05:17:07;13.93;;;12.00;;
1262;SDS011;62267;50.112;8.704;2023-10-13T05:19:55;29.47;;;19.00;;
1262;SDS011;62267;50.112;8.704;2023-10-13T05:22:41;22.70;;;13.87;;
1262;SDS011;62267;50.112;8.704;2023-10-13T05:25:27;21.23;;;17.53;;
1262;SDS011;62267;50.112;8.704;2023-10-13T05:28:15;21.20;;;16.70;;
1262;SDS011;62267;50.112;8.704;2023-10-13T05:31:20;17.53;;;13.13;;
1262;SDS011;62267;50.112;8.704;2023-10-13T05:34:06;23.97;;;17.37;;
1262;SDS011;62267;50.112;8.704;2023-10-13T05:37:11;23.73;;;13.80;;
1262;SDS011;62267;50.112;8.704;2023-10-13T05:40:16;16.00;;;13.70;;
1262;SDS011;62267;50.112;8.704;2023-10-13T05:43:02;13.10;;;11.80;;
1262;SDS011;62267;50.112;8.704;2023-10-13T05:45:50;21.20;;;14.03;;
1262;SDS011;62267;50.112;8.704;2023-10-13T05:48:41;20.87;;;14.23;;
1262;SDS011;62267;50.112;8.704;2023-10-13T05:51:27;25.27;;;14.17;;
1262;SDS011;62267;50.112;8.704;2023-10-13T05:54:13;17.87;;;12.50;;
1262;SDS011;62267;50.112;8.704;2023-10-13T05:56:43;17.30;;;13.30;;
1262;SDS011;62267;50.112;8.704;2023-10-13T05:59:31;22.27;;;14.40;;
1262;SDS011;62267;50.112;8.704;2023-10-13T06:02:19;17.23;;;13.10;;
1262;SDS011;62267;50.112;8.704;2023-10-13T06:05:06;27.27;;;15.13;;
1262;SDS011;62267;50.112;8.704;2023-10-13T06:07:54;16.60;;;13.33;;
1262;SDS011;62267;50.112;8.704;2023-10-13T06:10:41;17.60;;;13.37;;
1262;SDS011;62267;50.112;8.704;2023-10-13T06:13:29;20.27;;;12.80;;
1262;SDS011;62267;50.112;8.704;2023-10-13T06:16:17;16.33;;;12.80;;
1262;SDS011;62267;50.112;8.704;2023-10-13T06:19:03;18.80;;;11.87;;
1262;SDS011;62267;50.112;8.704;2023-10-13T06:21:49;15.33;;;12.00;;
1262;SDS011;62267;50.112;8.704;2023-10-13T06:24:37;17.63;;;13.10;;
1262;SDS011;62267;50.112;8.704;2023-10-13T06:27:23;17.37;;;12.10;;
1262;SDS011;62267;50.112;8.704;2023-10-13T06:30:09;16.70;;;13.13;;
1262;SDS011;62267;50.112;8.704;2023-10-13T06:32:39;22.40;;;13.50;;
1262;SDS011;62267;50.112;8.704;2023-10-13T06:35:08;17.77;;;13.10;;
1262;SDS011;62267;50.112;8.704;2023-10-13T06:37:35;19.90;;;12.60;;
1262;SDS011;62267;50.112;8.704;2023-10-13T06:40:09;17.53;;;13.43;;
1262;SDS011;62267;50.112;8.704;2023-10-13T06:42:53;20.40;;;13.70;;
1262;SDS011;62267;50.112;8.704;2023-10-13T06:45:40;21.20;;;13.60;;
1262;SDS011;62267;50.112;8.704;2023-10-13T06:48:07;22.30;;;13.30;;
1262;SDS011;62267;50.112;8.704;2023-10-13T06:50:47;15.17;;;12.97;;
1262;SDS011;62267;50.112;8.704;2023-10-13T06:53:15;15.50;;;12.70;;
1262;SDS011;62267;50.112;8.704;2023-10-13T06:55:43;17.07;;;12.40;;
1262;SDS011;62267;50.112;8.704;2023-10-13T06:58:14;21.03;;;13.00;;
1262;SDS011;62267;50.112;8.704;2023-10-13T07:00:44;18.73;;;13.07;;
1262;SDS011;62267;50.112;8.704;2023-10-13T07:03:22;20.13;;;12.83;;
1262;SDS011;62267;50.112;8.704;2023-10-13T07:05:49;21.23;;;13.07;;
1262;SDS011;62267;50.112;8.704;2023-10-13T07:08:17;19.93;;;13.10;;
1262;SDS011;62267;50.112;8.704;2023-10-13T07:10:54;19.07;;;13.60;;
1262;SDS011;62267;50.112;8.704;2023-10-13T07:13:30;19.10;;;13.20;;
1262;SDS011;62267;50.112;8.704;2023-10-13T07:16:00;16.60;;;13.40;;
1262;SDS011;62267;50.112;8.704;2023-10-13T07:18:42;20.83;;;13.77;;
1262;SDS011;62267;50.112;8.704;2023-10-13T07:21:21;17.43;;;12.13;;
1262;SDS011;62267;50.112;8.704;2023-10-13T07:23:58;20.10;;;12.80;;
1262;SDS011;62267;50.112;8.704;2023-10-13T07:26:35;20.57;;;12.37;;
1262;SDS011;62267;50.112;8.704;2023-10-13T07:29:10;15.63;;;12.07;;
1262;SDS011;62267;50.112;8.704;2023-10-13T07:31:38;15.60;;;12.13;;
1262;SDS011;62267;50.112;8.704;2023-10-13T07:34:12;19.40;;;12.50;;
1262;SDS011;62267;50.112;8.704;2023-10-13T07:36:54;17.10;;;13.10;;
1262;SDS011;62267;50.112;8.704;2023-10-13T07:39:29;18.70;;;12.50;;
1262;SDS011;62267;50.112;8.704;2023-10-13T07:42:05;15.60;;;11.60;;
1262;SDS011;62267;50.112;8.704;2023-10-13T07:44:34;15.90;;;11.63;;
1262;SDS011;62267;50.112;8.704;2023-10-13T07:47:13;17.93;;;11.73;;
1262;SDS011;62267;50.112;8.704;2023-10-13T07:49:41;14.27;;;11.60;;
1262;SDS011;62267;50.112;8.704;2023-10-13T07:52:09;18.13;;;11.80;;
1262;SDS011;62267;50.112;8.704;2023-10-13T07:54:46;20.63;;;12.80;;
1262;SDS011;62267;50.112;8.704;2023-10-13T07:57:18;15.37;;;11.63;;
1262;SDS011;62267;50.112;8.704;2023-10-13T07:59:45;16.57;;;10.80;;
1262;SDS011;62267;50.112;8.704;2023-10-13T08:02:18;24.67;;;15.13;;
1262;SDS011;62267;50.112;8.704;2023-10-13T08:05:11;17.30;;;10.90;;
1262;SDS011;62267;50.112;8.704;2023-10-13T08:07:51;13.90;;;10.40;;
1262;SDS011;62267;50.112;8.704;2023-10-13T08:10:18;14.47;;;11.00;;
1262;SDS011;62267;50.112;8.704;2023-10-13T08:12:51;16.40;;;11.83;;
1262;SDS011;62267;50.112;8.704;2023-10-13T08:15:21;14.87;;;11.20;;
1262;SDS011;62267;50.112;8.704;2023-10-13T08:17:59;18.97;;;12.27;;
1262;SDS011;62267;50.112;8.704;2023-10-13T08:20:45;11.37;;;10.17;;
1262;SDS011;62267;50.112;8.704;2023-10-13T08:23:14;13.20;;;10.83;;
1262;SDS011;62267;50.112;8.704;2023-10-13T08:25:46;14.37;;;10.67;;
1262;SDS011;62267;50.112;8.704;2023-10-13T08:28:32;13.73;;;9.97;;
1262;SDS011;62267;50.112;8.704;2023-10-13T08:31:22;12.00;;;9.83;;
1262;SDS011;62267;50.112;8.704;2023-10-13T08:33:53;20.00;;;11.00;;
1262;SDS011;62267;50.112;8.704;2023-10-13T08:36:32;15.10;;;10.40;;
1262;SDS011;62267;50.112;8.704;2023-10-13T08:39:04;14.70;;;10.00;;
1262;SDS011;62267;50.112;8.704;2023-10-13T08:41:51;11.30;;;10.10;;
1262;SDS011;62267;50.112;8.704;2023-10-13T08:44:40;18.80;;;10.20;;
1262;SDS011;62267;50.112;8.704;2023-10-13T08:47:13;13.60;;;9.63;;
1262;SDS011;62267;50.112;8.704;2023-10-13T08:49:47;17.30;;;9.40;;
1262;SDS011;62267;50.112;8.704;2023-10-13T08:52:18;13.10;;;8.07;;
1262;SDS011;62267;50.112;8.704;2023-10-13T08:55:12;12.13;;;8.83;;
1262;SDS011;62267;50.112;8.704;2023-10-13T08:58:06;10.70;;;8.20;;
1262;SDS011;62267;50.112;8.704;2023-10-13T09:00:42;12.40;;;7.70;;
1262;SDS011;62267;50.112;8.704;2023-10-13T09:03:39;15.70;;;9.43;;
1262;SDS011;62267;50.112;8.704;2023-10-13T09:06:11;13.83;;;9.13;;
1262;SDS011;62267;50.112;8.704;2023-10-13T09:08:41;10.53;;;8.37;;
1262;SDS011;62267;50.112;8.704;2023-10-13T09:11:33;10.40;;;8.63;;
1262;SDS011;62267;50.112;8.704;2023-10-13T09:14:16;12.40;;;8.07;;
1262;SDS011;62267;50.112;8.704;2023-10-13T09:17:05;12.47;;;8.70;;
1262;SDS011;62267;50.112;8.704;2023-10-13T09:19:46;12.80;;;8.60;;
1262;SDS011;62267;50.112;8.704;2023-10-13T09:22:24;11.50;;;8.40;;
1262;SDS011;62267;50.112;8.704;2023-10-13T09:25:02;13.67;;;9.10;;
1262;SDS011;62267;50.112;8.704;2023-10-13T09:27:32;16.20;;;9.53;;
1262;SDS011;62267;50.112;8.704;2023-10-13T09:30:00;13.27;;;9.20;;
1262;SDS011;62267;50.112;8.704;2023-10-13T09:32:36;11.23;;;9.63;;
1262;SDS011;62267;50.112;8.704;2023-10-13T09:35:16;12.10;;;8.93;;
1262;SDS011;62267;50.112;8.704;2023-10-13T09:37:45;14.83;;;8.30;;
1262;SDS011;62267;50.112;8.704;2023-10-13T09:40:16;12.93;;;8.80;;
1262;SDS011;62267;50.112;8.704;2023-10-13T09:43:17;11.10;;;7.80;;
1262;SDS011;62267;50.112;8.704;2023-10-13T09:45:46;10.73;;;8.37;;
1262;SDS011;62267;50.112;8.704;2023-10-13T09:48:35;14.80;;;9.60;;
1262;SDS011;62267;50.112;8.704;2023-10-13T09:51:10;11.37;;;7.83;;
1262;SDS011;62267;50.112;8.704;2023-10-13T09:53:39;12.27;;;8.50;;
1262;SDS011;62267;50.112;8.704;2023-10-13T09:56:29;14.23;;;9.57;;
1262;SDS011;62267;50.112;8.704;2023-10-13T09:59:11;10.47;;;8.73;;
1262;SDS011;62267;50.112;8.704;2023-10-13T10:01:42;11.43;;;8.87;;
1262;SDS011;62267;50.112;8.704;2023-10-13T10:04:23;14.00;;;9.07;;
1262;SDS011;62267;50.112;8.704;2023-10-13T10:06:54;11.43;;;8.20;;
1262;SDS011;62267;50.112;8.704;2023-10-13T10:09:34;16.03;;;8.67;;
1262;SDS011;62267;50.112;8.704;2023-10-13T10:12:48;10.37;;;8.70;;
1262;SDS011;62267;50.112;8.704;2023-10-13T10:17:23;11.77;;;7.60;;
1262;SDS011;62267;50.112;8.704;2023-10-13T10:19:56;12.43;;;8.33;;
1262;SDS011;62267;50.112;8.704;2023-10-13T10:22:31;10.20;;;9.00;;
1262;SDS011;62267;50.112;8.704;2023-10-13T10:25:05;9.13;;;7.70;;
1262;SDS011;62267;50.112;8.704;2023-10-13T10:27:57;9.00;;;7.73;;
1262;SDS011;62267;50.112;8.704;2023-10-13T10:30:26;8.67;;;7.90;;
1262;SDS011;62267;50.112;8.704;2023-10-13T10:32:54;12.80;;;8.23;;
1262;SDS011;62267;50.112;8.704;2023-10-13T10:35:25;9.97;;;8.33;;
1262;SDS011;62267;50.112;8.704;2023-10-13T10:37:57;12.87;;;8.50;;
1262;SDS011;62267;50.112;8.704;2023-10-13T10:40:53;12.63;;;8.60;;
1262;SDS011;62267;50.112;8.704;2023-10-13T10:46:28;10.30;;;8.60;;
1262;SDS011;62267;50.112;8.704;2023-10-13T10:49:06;14.70;;;7.87;;
1262;SDS011;62267;50.112;8.704;2023-10-13T10:51:41;12.13;;;8.20;;
1262;SDS011;62267;50.112;8.704;2023-10-13T10:54:18;9.37;;;8.47;;
1262;SDS011;62267;50.112;8.704;2023-10-13T10:56:46;11.27;;;8.57;;
1262;SDS011;62267;50.112;8.704;2023-10-13T10:59:26;11.63;;;8.60;;
1262;SDS011;62267;50.112;8.704;2023-10-13T11:02:03;12.07;;;8.93;;
1262;SDS011;62267;50.112;8.704;2023-10-13T11:04:35;14.47;;;9.00;;
1262;SDS011;62267;50.112;8.704;2023-10-13T11:07:22;10.27;;;8.40;;
1262;SDS011;62267;50.112;8.704;2023-10-13T11:10:09;9.77;;;8.30;;
1262;SDS011;62267;50.112;8.704;2023-10-13T11:13:06;10.37;;;8.50;;
1262;SDS011;62267;50.112;8.704;2023-10-13T11:15:48;14.27;;;8.47;;
1262;SDS011;62267;50.112;8.704;2023-10-13T11:18:18;11.47;;;8.50;;
1262;SDS011;62267;50.112;8.704;2023-10-13T11:21:00;10.10;;;9.07;;
1262;SDS011;62267;50.112;8.704;2023-10-13T11:23:33;11.80;;;9.50;;
1262;SDS011;62267;50.112;8.704;2023-10-13T11:26:03;12.60;;;8.77;;
1262;SDS011;62267;50.112;8.704;2023-10-13T11:28:32;13.30;;;9.53;;
1262;SDS011;62267;50.112;8.704;2023-10-13T11:31:01;9.80;;;8.13;;
1262;SDS011;62267;50.112;8.704;2023-10-13T11:33:42;11.40;;;7.97;;
1262;SDS011;62267;50.112;8.704;2023-10-13T11:36:13;10.07;;;8.10;;
1262;SDS011;62267;50.112;8.704;2023-10-13T11:38:49;13.30;;;7.27;;
1262;SDS011;62267;50.112;8.704;2023-10-13T11:41:18;13.70;;;9.07;;
1262;SDS011;62267;50.112;8.704;2023-10-13T11:43:50;11.93;;;8.53;;
1262;SDS011;62267;50.112;8.704;2023-10-13T11:46:19;12.70;;;8.33;;
1262;SDS011;62267;50.112;8.704;2023-10-13T11:49:07;9.40;;;7.67;;
1262;SDS011;62267;50.112;8.704;2023-10-13T11:51:41;12.17;;;8.57;;
1262;SDS011;62267;50.112;8.704;2023-10-13T11:54:12;9.40;;;8.40;;
1262;SDS011;62267;50.112;8.704;2023-10-13T11:56:41;9.00;;;7.83;;
1262;SDS011;62267;50.112;8.704;2023-10-13T11:59:08;11.83;;;8.83;;
1262;SDS011;62267;50.112;8.704;2023-10-13T12:01:54;9.50;;;8.30;;
1262;SDS011;62267;50.112;8.704;2023-10-13T12:04:38;14.27;;;9.30;;
1262;SDS011;62267;50.112;8.704;2023-10-13T12:07:09;9.33;;;7.80;;
1262;SDS011;62267;50.112;8.704;2023-10-13T12:09:53;10.00;;;8.60;;
1262;SDS011;62267;50.112;8.704;2023-10-13T12:12:27;8.80;;;7.87;;
1262;SDS011;62267;50.112;8.704;2023-10-13T12:14:55;9.20;;;8.30;;
1262;SDS011;62267;50.112;8.704;2023-10-13T12:17:24;10.40;;;9.27;;
1262;SDS011;62267;50.112;8.704;2023-10-13T12:19:52;10.60;;;8.60;;
1262;SDS011;62267;50.112;8.704;2023-10-13T12:22:19;9.83;;;8.57;;
1262;SDS011;62267;50.112;8.704;2023-10-13T12:24:55;13.97;;;8.37;;
1262;SDS011;62267;50.112;8.704;2023-10-13T12:27:22;8.93;;;7.97;;
1262;SDS011;62267;50.112;8.704;2023-10-13T12:29:52;10.93;;;8.67;;
1262;SDS011;62267;50.112;8.704;2023-10-13T12:32:22;9.30;;;8.50;;
1262;SDS011;62267;50.112;8.704;2023-10-13T12:34:51;9.27;;;7.87;;
1262;SDS011;62267;50.112;8.704;2023-10-13T12:37:30;9.40;;;8.50;;
1262;SDS011;62267;50.112;8.704;2023-10-13T12:40:17;8.67;;;7.77;;
1262;SDS011;62267;50.112;8.704;2023-10-13T12:43:03;16.50;;;8.03;;
1262;SDS011;62267;50.112;8.704;2023-10-13T12:45:50;11.50;;;8.33;;
1262;SDS011;62267;50.112;8.704;2023-10-13T12:48:37;10.30;;;8.13;;
1262;SDS011;62267;50.112;8.704;2023-10-13T12:51:23;10.03;;;7.50;;
1262;SDS011;62267;50.112;8.704;2023-10-13T12:54:02;10.27;;;7.97;;
1262;SDS011;62267;50.112;8.704;2023-10-13T12:56:44;7.67;;;6.57;;
1262;SDS011;62267;50.112;8.704;2023-10-13T12:59:14;7.50;;;6.80;;
1262;SDS011;62267;50.112;8.704;2023-10-13T13:01:42;9.40;;;8.23;;
1262;SDS011;62267;50.112;8.704;2023-10-13T13:04:09;9.07;;;7.70;;
1262;SDS011;62267;50.112;8.704;2023-10-13T13:07:00;8.37;;;7.67;;
1262;SDS011;62267;50.112;8.704;2023-10-13T13:09:27;8.47;;;7.07;;
1262;SDS011;62267;50.112;8.704;2023-10-13T13:11:57;10.50;;;8.17;;
1262;SDS011;62267;50.112;8.704;2023-10-13T13:14:25;8.90;;;7.63;;
1262;SDS011;62267;50.112;8.704;2023-10-13T13:16:57;10.00;;;7.23;;
1262;SDS011;62267;50.112;8.704;2023-10-13T13:19:33;8.33;;;7.53;;
1262;SDS011;62267;50.112;8.704;2023-10-13T13:22:07;10.00;;;7.73;;
1262;SDS011;62267;50.112;8.704;2023-10-13T13:24:39;12.43;;;8.23;;
1262;SDS011;62267;50.112;8.704;2023-10-13T13:27:10;11.37;;;7.80;;
1262;SDS011;62267;50.112;8.704;2023-10-13T13:29:44;8.00;;;7.30;;
1262;SDS011;62267;50.112;8.704;2023-10-13T13:32:11;11.60;;;8.10;;
1262;SDS011;62267;50.112;8.704;2023-10-13T13:34:52;11.20;;;7.90;;
1262;SDS011;62267;50.112;8.704;2023-10-13T13:37:31;8.40;;;7.00;;
1262;SDS011;62267;50.112;8.704;2023-10-13T13:39:58;7.97;;;7.17;;
1262;SDS011;62267;50.112;8.704;2023-10-13T13:42:41;11.80;;;7.70;;
1262;SDS011;62267;50.112;8.704;2023-10-13T13:45:13;10.83;;;7.73;;
1262;SDS011;62267;50.112;8.704;2023-10-13T13:47:58;9.33;;;8.10;;
1262;SDS011;62267;50.112;8.704;2023-10-13T13:50:26;10.40;;;8.97;;
1262;SDS011;62267;50.112;8.704;2023-10-13T13:52:56;9.20;;;7.73;;
1262;SDS011;62267;50.112;8.704;2023-10-13T13:55:24;8.90;;;7.73;;
1262;SDS011;62267;50.112;8.704;2023-10-13T13:57:56;11.93;;;7.40;;
1262;SDS011;62267;50.112;8.704;2023-10-13T14:00:24;9.27;;;7.73;;
1262;SDS011;62267;50.112;8.704;2023-10-13T14:03:04;10.30;;;7.63;;
1262;SDS011;62267;50.112;8.704;2023-10-13T14:05:33;11.10;;;8.10;;
1262;SDS011;62267;50.112;8.704;2023-10-13T14:08:02;9.10;;;7.37;;
1262;SDS011;62267;50.112;8.704;2023-10-13T14:10:38;10.70;;;7.87;;
1262;SDS011;62267;50.112;8.704;2023-10-13T14:13:25;9.93;;;8.27;;
1262;SDS011;62267;50.112;8.704;2023-10-13T14:16:12;8.20;;;7.40;;
1262;SDS011;62267;50.112;8.704;2023-10-13T14:18:46;10.10;;;8.87;;
1262;SDS011;62267;50.112;8.704;2023-10-13T14:21:14;8.57;;;7.67;;
1262;SDS011;62267;50.112;8.704;2023-10-13T14:23:51;13.33;;;7.77;;
1262;SDS011;62267;50.112;8.704;2023-10-13T14:26:22;12.50;;;7.70;;
1262;SDS011;62267;50.112;8.704;2023-10-13T14:28:52;8.70;;;6.73;;
1262;SDS011;62267;50.112;8.704;2023-10-13T14:31:35;10.80;;;6.80;;
1262;SDS011;62267;50.112;8.704;2023-10-13T14:34:03;7.97;;;7.23;;
1262;SDS011;62267;50.112;8.704;2023-10-13T14:36:30;7.30;;;6.60;;
1262;SDS011;62267;50.112;8.704;2023-10-13T14:39:02;9.33;;;7.40;;
1262;SDS011;62267;50.112;8.704;2023-10-13T14:41:29;9.60;;;7.43;;
1262;SDS011;62267;50.112;8.704;2023-10-13T14:43:58;9.53;;;6.53;;
1262;SDS011;62267;50.112;8.704;2023-10-13T14:46:31;10.50;;;7.90;;
1262;SDS011;62267;50.112;8.704;2023-10-13T14:49:02;19.17;;;7.93;;
1262;SDS011;62267;50.112;8.704;2023-10-13T14:51:29;9.33;;;6.67;;
1262;SDS011;62267;50.112;8.704;2023-10-13T14:53:58;9.80;;;6.20;;
1262;SDS011;62267;50.112;8.704;2023-10-13T14:56:26;7.87;;;7.07;;
1262;SDS011;62267;50.112;8.704;2023-10-13T14:58:54;9.83;;;7.73;;
1262;SDS011;62267;50.112;8.704;2023-10-13T15:01:22;8.90;;;7.30;;
1262;SDS011;62267;50.112;8.704;2023-10-13T15:03:53;9.13;;;6.97;;
1262;SDS011;62267;50.112;8.704;2023-10-13T15:06:25;7.70;;;7.00;;
1262;SDS011;62267;50.112;8.704;2023-10-13T15:08:57;8.73;;;7.10;;
1262;SDS011;62267;50.112;8.704;2023-10-13T15:11:25;11.83;;;7.07;;
1262;SDS011;62267;50.112;8.704;2023-10-13T15:13:53;13.13;;;8.17;;
1262;SDS011;62267;50.112;8.704;2023-10-13T15:16:23;11.10;;;6.77;;
1262;SDS011;62267;50.112;8.704;2023-10-13T15:18:51;9.40;;;6.10;;
1262;SDS011;62267;50.112;8.704;2023-10-13T15:21:19;12.47;;;6.43;;
1262;SDS011;62267;50.112;8.704;2023-10-13T15:23:53;9.57;;;6.40;;
1262;SDS011;62267;50.112;8.704;2023-10-13T15:26:25;8.50;;;7.40;;
1262;SDS011;62267;50.112;8.704;2023-10-13T15:28:53;7.47;;;6.53;;
1262;SDS011;62267;50.112;8.704;2023-10-13T15:31:22;10.70;;;6.70;;
1262;SDS011;62267;50.112;8.704;2023-10-13T15:33:53;10.87;;;6.80;;
1262;SDS011;62267;50.112;8.704;2023-10-13T15:36:22;9.03;;;6.93;;
1262;SDS011;62267;50.112;8.704;2023-10-13T15:38:52;8.10;;;7.30;;
1262;SDS011;62267;50.112;8.704;2023-10-13T15:41:24;8.73;;;6.57;;